Terminal Aerodrome Forecast
Issued by NWS

Home | Current Version | Previous Version | Graphics & Text | Print | Product List | Glossary Off
Versions: 1 2 3 4 5 6 7 8 9 10 11 12 13 14 15 16 17 18 19 20 21 22 23

000
FTUS43 KMPX 241303 AAA
TAFRWF
TAF AMD
KRWF 241303Z 2413/2512 00000KT 6SM BR BKN002
      TEMPO 2414/2415 3SM BR SCT002
     FM241500 12007KT 3SM BR OVC012
     FM242000 10008KT 1/2SM SN FG OVC005
     FM250300 29007KT 1 1/2SM -SN OVC007
     FM250400 29010KT P6SM BKN010
     FM250700 28013KT P6SM BKN040
     FM250800 27013KT P6SM SCT050=

USA.gov is the U.S. government's official web portal to all federal, state and local government web resources and services.